Time;durP1;ratioP1;P1;durP2;ratioP2;P2;SDS_P1;SDS_P2;PMS_P1;PMS_P2;Temp;Humidity;BMP_temperature;BMP_pressure;BME280_temperature;BME280_humidity;BME280_pressure;Samples;Min_cycle;Max_cycle;Signal;HPM_P1;HPM_P2
2022/01/17 00:00:19;;;;;;;13.47;2.00;;;6.10;99.90;;;;;;5023275;28;20053;-76
2022/01/17 00:02:47;;;;;;;13.57;2.60;;;6.10;99.90;;;;;;5037226;28;20304;-76
2022/01/17 00:05:13;;;;;;;15.77;3.00;;;6.10;99.90;;;;;;5038677;28;20059;-76
2022/01/17 00:07:39;;;;;;;14.90;3.00;;;6.00;99.90;;;;;;5038319;28;20112;-77
2022/01/17 00:10:06;;;;;;;18.17;2.50;;;6.00;99.90;;;;;;5023560;28;20049;-76
2022/01/17 00:12:35;;;;;;;13.47;2.57;;;6.00;99.90;;;;;;5022435;28;20048;-76
2022/01/17 00:15:01;;;;;;;14.20;2.80;;;5.90;99.90;;;;;;5041053;28;20052;-76
2022/01/17 00:17:35;;;;;;;10.07;2.27;;;5.90;99.90;;;;;;5022392;28;20052;-76
2022/01/17 00:20:10;;;;;;;16.03;2.50;;;5.80;99.90;;;;;;5070206;28;20049;-77
2022/01/17 00:22:36;;;;;;;16.43;3.53;;;5.80;99.90;;;;;;5055137;28;20049;-76
2022/01/17 00:25:03;;;;;;;14.63;2.80;;;5.80;99.90;;;;;;5056562;28;20061;-76
2022/01/17 00:27:31;;;;;;;15.67;2.50;;;5.70;99.90;;;;;;5038541;28;20053;-76
2022/01/17 00:29:57;;;;;;;14.53;2.20;;;5.60;99.90;;;;;;5052262;28;20048;-76
2022/01/17 00:32:22;;;;;;;12.30;2.77;;;5.60;99.90;;;;;;5021854;28;20057;-76
2022/01/17 00:34:48;;;;;;;10.13;2.00;;;5.60;99.90;;;;;;5023238;28;20087;-76
2022/01/17 00:37:14;;;;;;;14.97;2.83;;;5.60;99.90;;;;;;5051856;28;20071;-76
2022/01/17 00:39:40;;;;;;;12.23;2.87;;;5.60;99.90;;;;;;5072159;28;20040;-76
2022/01/17 00:42:06;;;;;;;15.37;2.77;;;5.50;99.90;;;;;;5004946;28;20074;-76
2022/01/17 00:44:32;;;;;;;12.73;2.20;;;5.60;99.90;;;;;;5022169;28;20059;-75
2022/01/17 00:46:57;;;;;;;14.20;3.67;;;5.60;99.90;;;;;;5029350;28;20049;-75
2022/01/17 00:49:23;;;;;;;18.50;3.00;;;5.60;99.90;;;;;;5005005;28;20554;-76
2022/01/17 00:51:49;;;;;;;14.37;2.40;;;5.60;99.90;;;;;;5038683;28;20286;-75
2022/01/17 00:54:15;;;;;;;15.40;2.70;;;5.60;99.90;;;;;;5037436;28;20044;-77
2022/01/17 00:56:41;;;;;;;12.63;3.13;;;5.60;99.90;;;;;;5052551;28;20124;-76
2022/01/17 00:59:06;;;;;;;16.00;2.80;;;5.70;99.90;;;;;;5087421;28;20196;-76
2022/01/17 01:01:32;;;;;;;16.43;2.73;;;5.60;99.90;;;;;;5054751;28;20107;-76
2022/01/17 01:03:58;;;;;;;12.97;2.50;;;5.70;99.90;;;;;;5051740;28;20040;-76
2022/01/17 01:06:24;;;;;;;15.07;3.10;;;5.70;99.90;;;;;;5056087;28;20064;-76
2022/01/17 01:08:50;;;;;;;15.70;3.00;;;5.70;99.90;;;;;;5034664;28;20044;-76
2022/01/17 01:11:15;;;;;;;19.70;2.73;;;5.70;99.90;;;;;;5034683;28;20045;-76
2022/01/17 01:13:41;;;;;;;11.40;2.70;;;5.60;99.90;;;;;;5035722;28;20048;-76
2022/01/17 01:16:23;;;;;;;14.53;2.53;;;5.70;99.90;;;;;;5052667;28;20041;-77
2022/01/17 01:19:41;;;;;;;9.52;2.60;;;5.70;99.90;;;;;;5039283;28;20107;-75
2022/01/17 01:21:48;;;;;;;13.83;3.00;;;5.70;99.90;;;;;;5042613;28;20152;-75
2022/01/17 01:29:47;;;;;;;13.57;2.70;;;5.70;99.90;;;;;;5053635;28;20085;-75
2022/01/17 01:32:18;;;;;;;15.83;2.83;;;5.70;99.90;;;;;;5053989;28;20056;-76
2022/01/17 01:34:48;;;;;;;15.87;2.67;;;5.70;99.90;;;;;;5036339;28;20041;-76
2022/01/17 01:37:14;;;;;;;9.60;2.40;;;5.70;99.90;;;;;;5021372;28;20041;-76
2022/01/17 01:39:39;;;;;;;19.53;3.23;;;5.60;99.90;;;;;;5054344;28;20114;-76
2022/01/17 01:42:15;;;;;;;18.57;3.83;;;5.70;99.90;;;;;;5053357;28;20109;-75
2022/01/17 01:44:41;;;;;;;16.43;2.23;;;5.70;99.90;;;;;;5068383;28;20055;-76
2022/01/17 01:47:07;;;;;;;12.77;2.50;;;5.70;99.90;;;;;;5054617;28;20048;-76
2022/01/17 01:49:33;;;;;;;16.67;2.63;;;5.70;99.90;;;;;;5021038;28;20052;-76
2022/01/17 01:51:59;;;;;;;10.57;2.20;;;5.70;99.90;;;;;;5051761;28;20547;-76
2022/01/17 01:54:25;;;;;;;12.77;2.40;;;5.70;99.90;;;;;;5004405;28;20491;-77
2022/01/17 01:56:52;;;;;;;14.10;2.73;;;5.70;99.90;;;;;;5055015;28;20037;-76
2022/01/17 01:59:20;;;;;;;14.90;2.77;;;5.70;99.90;;;;;;5033473;28;20048;-76
2022/01/17 02:01:46;;;;;;;20.97;3.43;;;5.70;99.90;;;;;;5021788;28;20049;-76
2022/01/17 02:04:14;;;;;;;29.77;3.33;;;5.70;99.90;;;;;;5070038;28;20045;-76
2022/01/17 02:06:40;;;;;;;15.70;2.40;;;5.60;99.90;;;;;;5052442;28;20117;-76
2022/01/17 02:09:06;;;;;;;11.67;2.57;;;5.60;99.90;;;;;;5068336;28;20045;-76
2022/01/17 02:11:32;;;;;;;14.90;2.40;;;5.60;99.90;;;;;;5036230;28;20076;-76
2022/01/17 02:13:58;;;;;;;12.60;2.50;;;5.50;99.90;;;;;;5034630;28;20100;-76
2022/01/17 02:16:24;;;;;;;12.47;2.53;;;5.60;99.90;;;;;;5037018;28;20071;-75
2022/01/17 02:18:51;;;;;;;14.17;2.23;;;5.60;99.90;;;;;;5070196;28;20045;-76
2022/01/17 02:24:02;;;;;;;13.87;2.53;;;5.50;99.90;;;;;;5084275;28;20084;-76
2022/01/17 02:26:29;;;;;;;13.37;2.73;;;5.50;99.90;;;;;;5021645;28;20052;-76
2022/01/17 02:28:57;;;;;;;28.47;2.83;;;5.50;99.90;;;;;;5040175;28;20135;-76
2022/01/17 02:31:24;;;;;;;15.67;2.77;;;5.50;99.90;;;;;;5040680;28;20079;-75
2022/01/17 02:33:51;;;;;;;13.90;2.47;;;5.50;99.90;;;;;;5056285;28;20126;-76
2022/01/17 02:36:17;;;;;;;16.57;2.60;;;5.40;99.90;;;;;;5041194;28;20048;-76
2022/01/17 02:38:43;;;;;;;11.90;2.43;;;5.40;99.90;;;;;;5073370;28;20163;-75
2022/01/17 02:41:09;;;;;;;18.40;2.50;;;5.30;99.90;;;;;;5056763;28;20047;-76
2022/01/17 02:43:35;;;;;;;12.90;2.80;;;5.40;99.90;;;;;;5025399;28;20069;-76
2022/01/17 02:48:38;;;;;;;19.20;3.00;;;5.30;99.90;;;;;;5090610;28;20546;-76
2022/01/17 02:51:04;;;;;;;17.00;2.80;;;5.30;99.90;;;;;;5039724;28;20080;-76
2022/01/17 02:53:30;;;;;;;14.43;3.00;;;5.40;99.90;;;;;;5056264;28;20055;-82
2022/01/17 02:55:57;;;;;;;16.87;2.53;;;5.30;99.90;;;;;;5055151;28;20045;-75
2022/01/17 02:58:25;;;;;;;11.03;2.00;;;5.30;99.90;;;;;;5072903;28;20068;-75
2022/01/17 03:00:53;;;;;;;12.37;3.13;;;5.30;99.90;;;;;;5040685;28;20049;-75
2022/01/17 03:03:21;;;;;;;13.97;2.80;;;5.20;99.90;;;;;;5037468;28;20044;-76
2022/01/17 03:05:48;;;;;;;19.67;3.30;;;5.30;99.90;;;;;;5039451;28;20127;-76
2022/01/17 03:08:16;;;;;;;16.63;2.60;;;5.20;99.90;;;;;;5057412;28;20611;-76
2022/01/17 03:10:43;;;;;;;15.47;2.87;;;5.20;99.90;;;;;;5040086;28;20056;-76
2022/01/17 03:13:31;;;;;;;12.60;2.77;;;5.20;99.90;;;;;;5073668;28;20064;-77
2022/01/17 03:15:59;;;;;;;15.23;2.67;;;5.20;99.90;;;;;;5039758;28;20094;-76
2022/01/17 03:18:36;;;;;;;16.43;2.57;;;5.20;99.90;;;;;;5038087;28;20080;-76
2022/01/17 03:21:03;;;;;;;15.23;2.97;;;5.30;99.90;;;;;;5037913;28;20045;-76
2022/01/17 03:23:29;;;;;;;18.33;2.63;;;5.30;99.90;;;;;;5023936;28;20090;-76
2022/01/17 03:25:56;;;;;;;12.83;2.77;;;5.30;99.90;;;;;;5023787;28;20045;-75
2022/01/17 03:28:22;;;;;;;18.20;2.93;;;5.30;99.90;;;;;;5055092;28;20091;-76
2022/01/17 03:30:48;;;;;;;15.47;2.70;;;5.30;99.90;;;;;;5024323;28;20044;-75
2022/01/17 03:33:17;;;;;;;11.03;2.47;;;5.30;99.90;;;;;;5039062;28;20048;-75
2022/01/17 03:35:44;;;;;;;13.43;2.97;;;5.30;99.90;;;;;;5056360;28;20087;-76
2022/01/17 03:38:12;;;;;;;15.13;2.83;;;5.30;99.90;;;;;;5040007;28;20041;-76
2022/01/17 03:40:39;;;;;;;14.83;2.63;;;5.30;99.90;;;;;;5039161;28;20040;-77
2022/01/17 03:43:05;;;;;;;13.43;2.70;;;5.40;99.90;;;;;;5040021;28;20123;-76
2022/01/17 03:45:31;;;;;;;10.70;2.37;;;5.40;99.90;;;;;;5039431;28;20037;-75
2022/01/17 03:47:57;;;;;;;21.10;2.90;;;5.40;99.90;;;;;;5073491;28;20748;-77
2022/01/17 03:50:27;;;;;;;11.17;2.37;;;5.50;99.90;;;;;;5038389;28;20080;-75
2022/01/17 03:52:53;;;;;;;10.43;2.23;;;5.50;99.90;;;;;;5056956;28;20061;-76
2022/01/17 03:55:21;;;;;;;13.70;2.13;;;5.50;99.90;;;;;;5039443;28;20096;-75
2022/01/17 03:57:48;;;;;;;9.07;2.80;;;5.50;99.90;;;;;;5089582;28;20110;-75
2022/01/17 04:00:21;;;;;;;12.30;2.87;;;5.50;99.90;;;;;;5053995;28;20391;-78
2022/01/17 04:02:48;;;;;;;15.57;2.50;;;5.60;99.90;;;;;;5038533;28;20037;-76
2022/01/17 04:05:13;;;;;;;12.47;3.03;;;5.60;99.90;;;;;;5040034;28;20052;-76
2022/01/17 04:07:39;;;;;;;10.30;2.37;;;5.60;99.90;;;;;;5048037;28;20158;-76
2022/01/17 04:10:05;;;;;;;13.73;2.17;;;5.60;99.90;;;;;;5021491;28;20130;-76
2022/01/17 04:12:31;;;;;;;11.10;2.47;;;5.60;99.90;;;;;;5038859;28;20086;-76
2022/01/17 04:14:57;;;;;;;10.23;2.63;;;5.60;99.90;;;;;;5022293;28;20068;-76
2022/01/17 04:17:28;;;;;;;10.37;2.30;;;5.60;99.90;;;;;;5037250;28;20499;-75
2022/01/17 04:20:07;;;;;;;10.93;2.77;;;5.70;99.90;;;;;;5054983;28;20076;-76
2022/01/17 04:22:39;;;;;;;12.80;2.17;;;5.70;99.90;;;;;;5054937;28;20052;-76
2022/01/17 04:25:06;;;;;;;16.93;2.87;;;5.70;99.90;;;;;;5021288;28;20109;-76
2022/01/17 04:27:33;;;;;;;10.77;2.77;;;5.70;99.90;;;;;;5024216;28;20141;-76
2022/01/17 04:29:59;;;;;;;15.83;2.70;;;5.60;99.90;;;;;;5038453;28;20048;-75
2022/01/17 04:32:25;;;;;;;16.37;2.80;;;5.60;99.90;;;;;;5054644;28;20041;-76
2022/01/17 04:34:51;;;;;;;14.13;2.67;;;5.60;99.90;;;;;;5070726;28;20530;-76
2022/01/17 04:37:17;;;;;;;21.53;2.60;;;5.60;99.90;;;;;;5021465;28;20037;-76
2022/01/17 04:39:42;;;;;;;12.97;2.70;;;5.60;99.90;;;;;;5039090;28;20044;-76
2022/01/17 04:42:13;;;;;;;12.47;3.07;;;5.60;99.90;;;;;;5005300;28;20045;-76
2022/01/17 04:47:31;;;;;;;10.30;2.53;;;5.60;99.90;;;;;;5055501;28;20060;-76
2022/01/17 04:49:58;;;;;;;15.10;3.13;;;5.60;99.90;;;;;;5053757;28;20045;-75
2022/01/17 04:52:24;;;;;;;10.00;2.77;;;5.60;99.90;;;;;;5055394;28;20075;-76
2022/01/17 04:55:00;;;;;;;17.83;3.30;;;5.60;99.90;;;;;;5053624;28;20048;-76
2022/01/17 04:57:26;;;;;;;13.70;2.47;;;5.60;99.90;;;;;;5054252;28;20040;-76
2022/01/17 04:59:52;;;;;;;11.43;3.00;;;5.70;99.90;;;;;;5021473;28;20077;-76
2022/01/17 05:02:17;;;;;;;10.87;2.30;;;5.70;99.90;;;;;;5021413;28;20047;-76
2022/01/17 05:04:45;;;;;;;9.23;2.30;;;5.70;99.90;;;;;;5002638;28;20038;-77
2022/01/17 05:07:17;;;;;;;14.47;2.20;;;5.70;99.90;;;;;;5064226;28;20045;-76
2022/01/17 05:09:43;;;;;;;12.82;2.10;;;5.70;99.90;;;;;;5072627;28;20033;-76
2022/01/17 05:12:11;;;;;;;11.67;2.23;;;5.80;99.90;;;;;;5042448;28;20044;-76
2022/01/17 05:14:41;;;;;;;10.40;2.57;;;5.80;99.90;;;;;;5036769;28;20514;-76
2022/01/17 05:17:24;;;;;;;16.43;2.33;;;5.80;99.90;;;;;;5033966;28;20052;-76
2022/01/17 05:19:54;;;;;;;16.73;2.53;;;5.90;99.90;;;;;;5023028;28;20101;-75
2022/01/17 05:22:20;;;;;;;14.40;2.63;;;5.90;99.90;;;;;;5023462;28;20041;-76
2022/01/17 05:24:47;;;;;;;18.47;2.60;;;5.80;99.90;;;;;;5018907;28;20049;-77
2022/01/17 05:27:12;;;;;;;12.93;2.93;;;5.90;99.90;;;;;;5043804;28;20075;-78
2022/01/17 05:29:38;;;;;;;15.87;2.70;;;5.90;99.90;;;;;;5064306;28;20040;-81
2022/01/17 05:32:05;;;;;;;11.03;2.83;;;5.90;99.90;;;;;;5037942;28;20048;-77
2022/01/17 05:34:33;;;;;;;10.13;2.60;;;5.80;99.90;;;;;;5038557;28;20044;-78
2022/01/17 05:36:59;;;;;;;11.57;2.80;;;5.90;99.90;;;;;;5037893;28;20052;-78
2022/01/17 05:39:25;;;;;;;16.23;3.00;;;5.90;99.90;;;;;;5036808;28;20484;-75
2022/01/17 05:41:51;;;;;;;12.37;2.53;;;5.90;99.90;;;;;;5020448;28;20033;-77
2022/01/17 05:44:16;;;;;;;13.33;3.10;;;5.90;99.90;;;;;;5020544;28;20095;-75
2022/01/17 05:46:42;;;;;;;13.60;3.40;;;6.00;99.90;;;;;;5068672;28;20052;-75
2022/01/17 05:49:08;;;;;;;15.00;2.83;;;6.00;99.90;;;;;;5053051;28;20055;-75
2022/01/17 05:51:33;;;;;;;15.37;2.80;;;6.00;99.90;;;;;;5070554;28;20049;-75
2022/01/17 05:53:59;;;;;;;12.37;3.10;;;6.00;99.90;;;;;;5019757;28;21112;-76
2022/01/17 05:56:25;;;;;;;20.00;3.30;;;6.00;99.90;;;;;;5005332;28;20049;-76
2022/01/17 05:58:51;;;;;;;10.47;3.33;;;6.00;99.90;;;;;;5067951;28;20091;-75
2022/01/17 06:01:16;;;;;;;15.50;3.57;;;6.00;99.90;;;;;;5020704;28;20781;-75
2022/01/17 06:03:42;;;;;;;15.30;3.17;;;6.10;99.90;;;;;;5071898;28;20072;-76
2022/01/17 06:06:08;;;;;;;22.60;3.97;;;6.10;99.90;;;;;;5024035;28;20045;-75
2022/01/17 06:08:34;;;;;;;18.73;3.23;;;6.10;99.90;;;;;;5025833;28;20044;-75
2022/01/17 06:11:00;;;;;;;10.23;3.37;;;6.10;99.90;;;;;;5025036;28;20055;-76
2022/01/17 06:13:26;;;;;;;13.27;3.37;;;6.10;99.90;;;;;;5059761;28;20041;-76
2022/01/17 06:15:52;;;;;;;17.20;3.83;;;6.20;99.90;;;;;;5024742;28;20708;-75
2022/01/17 06:18:17;;;;;;;23.17;3.80;;;6.20;99.90;;;;;;5074316;28;20045;-76
2022/01/17 06:20:43;;;;;;;15.23;3.17;;;6.20;99.90;;;;;;5074779;28;20052;-76
2022/01/17 06:23:09;;;;;;;17.73;3.87;;;6.20;99.90;;;;;;5020985;28;20044;-79
2022/01/17 06:25:34;;;;;;;15.90;4.07;;;6.20;99.90;;;;;;5052064;28;20071;-76
2022/01/17 06:28:00;;;;;;;17.40;3.70;;;6.20;99.90;;;;;;5056053;28;20037;-75
2022/01/17 06:30:26;;;;;;;19.93;3.87;;;6.20;99.90;;;;;;5042083;28;20067;-75
2022/01/17 06:32:52;;;;;;;21.40;4.43;;;6.30;99.90;;;;;;5022916;28;20094;-75
2022/01/17 06:35:18;;;;;;;13.27;3.97;;;6.30;99.90;;;;;;5057320;28;20036;-81
2022/01/17 06:37:45;;;;;;;16.83;3.93;;;6.30;99.90;;;;;;5056135;28;20492;-76
2022/01/17 06:40:12;;;;;;;15.27;3.50;;;6.30;99.90;;;;;;5056651;28;20519;-75
2022/01/17 06:42:38;;;;;;;12.53;4.10;;;6.30;99.90;;;;;;5036795;28;20057;-75
2022/01/17 06:45:05;;;;;;;16.47;3.60;;;6.30;99.90;;;;;;5039452;28;20051;-77
2022/01/17 06:47:36;;;;;;;15.27;3.77;;;6.30;99.90;;;;;;5057593;28;20041;-77
2022/01/17 06:50:04;;;;;;;17.43;4.20;;;6.30;99.90;;;;;;5063868;28;20049;-78
2022/01/17 06:52:31;;;;;;;17.50;4.47;;;6.30;99.90;;;;;;5040215;28;20058;-76
2022/01/17 06:54:57;;;;;;;19.53;5.20;;;6.40;99.90;;;;;;5021879;28;20068;-76
2022/01/17 06:57:23;;;;;;;19.93;4.53;;;6.40;99.90;;;;;;5057879;28;20064;-75
2022/01/17 06:59:49;;;;;;;16.67;5.43;;;6.40;99.90;;;;;;5041840;28;20049;-78
2022/01/17 07:02:15;;;;;;;17.13;4.17;;;6.30;99.90;;;;;;5067096;28;20079;-75
2022/01/17 07:04:42;;;;;;;19.97;4.97;;;6.30;99.90;;;;;;5000259;28;20045;-75
2022/01/17 07:07:08;;;;;;;20.33;4.70;;;6.30;99.90;;;;;;5064455;28;20037;-75
2022/01/17 07:09:34;;;;;;;21.30;5.53;;;6.30;99.90;;;;;;5063877;28;20045;-77
2022/01/17 07:11:59;;;;;;;22.40;5.83;;;6.30;99.90;;;;;;5051334;28;20049;-75
2022/01/17 07:14:26;;;;;;;20.30;5.40;;;6.30;99.90;;;;;;5032050;28;20056;-76
2022/01/17 07:16:53;;;;;;;20.00;5.13;;;6.30;99.90;;;;;;5016018;28;20037;-75
2022/01/17 07:19:19;;;;;;;19.77;5.10;;;6.30;99.90;;;;;;5044561;28;20052;-75
2022/01/17 07:21:45;;;;;;;23.70;5.30;;;6.30;99.90;;;;;;5033150;28;20523;-77
2022/01/17 07:24:10;;;;;;;23.47;4.97;;;6.20;99.90;;;;;;5053697;28;20051;-74
2022/01/17 07:26:36;;;;;;;17.37;5.37;;;6.20;99.90;;;;;;5064402;28;20052;-76
2022/01/17 07:29:08;;;;;;;25.33;5.40;;;6.30;99.90;;;;;;5042249;28;20068;-76
2022/01/17 07:31:34;;;;;;;27.75;5.35;;;6.30;99.90;;;;;;5031215;28;20689;-76
2022/01/17 07:34:01;;;;;;;25.50;5.20;;;6.30;99.90;;;;;;5059356;28;20084;-77
2022/01/17 07:36:26;;;;;;;19.37;4.80;;;6.30;99.90;;;;;;5045270;28;20092;-83
2022/01/17 07:38:52;;;;;;;23.40;5.23;;;6.30;99.90;;;;;;5032319;28;20033;-76
2022/01/17 07:41:18;;;;;;;23.87;5.00;;;6.30;99.90;;;;;;5043161;28;20049;-76
2022/01/17 07:43:44;;;;;;;16.57;4.47;;;6.40;99.90;;;;;;5047095;28;20537;-76
2022/01/17 07:46:33;;;;;;;20.10;4.57;;;6.40;99.90;;;;;;5075542;28;20056;-76
2022/01/17 07:49:10;;;;;;;22.77;5.00;;;6.40;99.90;;;;;;5025015;28;20044;-76
2022/01/17 07:51:44;;;;;;;20.03;5.37;;;6.40;99.90;;;;;;5067935;28;20343;-76
2022/01/17 07:54:14;;;;;;;18.23;4.87;;;6.40;99.90;;;;;;5047062;28;20053;-76
2022/01/17 07:56:41;;;;;;;21.50;4.63;;;6.50;99.90;;;;;;5054138;28;20044;-76
2022/01/17 07:59:07;;;;;;;17.37;4.83;;;6.50;99.90;;;;;;5056129;28;20064;-76
2022/01/17 08:01:35;;;;;;;22.67;6.13;;;6.50;99.90;;;;;;5031327;28;20049;-77
2022/01/17 08:04:01;;;;;;;21.73;5.00;;;6.50;99.90;;;;;;5031307;28;20065;-76
2022/01/17 08:06:26;;;;;;;21.40;5.33;;;6.50;99.90;;;;;;5058291;28;20050;-77
2022/01/17 08:08:52;;;;;;;25.50;5.57;;;6.50;99.90;;;;;;5046656;28;20045;-78
2022/01/17 08:11:18;;;;;;;22.33;5.07;;;6.50;99.90;;;;;;5013956;28;20118;-77
2022/01/17 08:13:44;;;;;;;21.00;5.23;;;6.60;99.90;;;;;;5046819;28;20489;-76
2022/01/17 08:16:10;;;;;;;22.03;5.20;;;6.60;99.90;;;;;;5040031;28;20095;-76
2022/01/17 08:18:36;;;;;;;29.13;5.10;;;6.60;99.90;;;;;;5010853;28;20104;-76
2022/01/17 08:21:03;;;;;;;26.10;4.70;;;6.60;99.90;;;;;;5064114;28;20048;-80
2022/01/17 08:23:29;;;;;;;22.27;4.83;;;6.60;99.90;;;;;;5047171;28;20040;-76
2022/01/17 08:25:55;;;;;;;25.70;4.90;;;6.60;99.90;;;;;;5028940;28;20055;-76
2022/01/17 08:28:21;;;;;;;27.17;5.20;;;6.70;99.90;;;;;;5076897;28;20048;-76
2022/01/17 08:30:47;;;;;;;21.33;4.50;;;6.70;99.90;;;;;;5042420;28;20092;-78
2022/01/17 08:33:13;;;;;;;32.07;5.43;;;6.70;99.90;;;;;;5059070;28;20112;-76
2022/01/17 08:35:38;;;;;;;23.50;5.57;;;6.70;99.90;;;;;;5030983;28;20041;-76
2022/01/17 08:38:04;;;;;;;24.37;4.33;;;6.70;99.90;;;;;;5052779;28;20041;-76
2022/01/17 08:40:30;;;;;;;27.87;5.47;;;6.70;99.90;;;;;;5063497;28;20060;-76
2022/01/17 08:42:56;;;;;;;19.57;4.70;;;6.70;99.90;;;;;;5040267;28;20052;-76
2022/01/17 08:45:24;;;;;;;31.97;5.37;;;6.70;99.90;;;;;;5030114;28;20552;-77
2022/01/17 08:47:51;;;;;;;18.00;3.97;;;6.80;99.90;;;;;;5013670;28;20096;-76
2022/01/17 08:50:19;;;;;;;23.03;5.17;;;6.80;99.90;;;;;;5028672;28;20056;-76
2022/01/17 08:52:46;;;;;;;29.67;5.10;;;6.80;99.90;;;;;;5030493;28;20056;-76
2022/01/17 08:55:13;;;;;;;22.97;4.50;;;6.80;99.90;;;;;;5065187;28;20480;-76
2022/01/17 08:57:39;;;;;;;27.70;5.37;;;6.80;99.90;;;;;;5037590;28;20041;-76
2022/01/17 09:00:08;;;;;;;27.90;5.17;;;6.80;99.90;;;;;;5004690;28;20052;-75
2022/01/17 09:02:34;;;;;;;32.37;4.70;;;6.90;99.90;;;;;;5036355;28;20098;-76
2022/01/17 09:05:00;;;;;;;30.67;5.33;;;6.90;99.90;;;;;;5021799;28;20041;-75
2022/01/17 09:07:26;;;;;;;26.13;4.80;;;6.90;99.90;;;;;;5035846;28;20037;-76
2022/01/17 09:09:51;;;;;;;22.30;5.00;;;6.90;99.90;;;;;;5005156;28;20178;-75
2022/01/17 09:12:17;;;;;;;24.63;4.87;;;6.90;99.90;;;;;;5020386;28;20047;-76
2022/01/17 09:14:43;;;;;;;31.17;5.40;;;7.00;99.90;;;;;;5037633;28;20452;-76
2022/01/17 09:17:10;;;;;;;26.83;5.43;;;6.90;99.90;;;;;;5020803;28;20048;-77
2022/01/17 09:19:37;;;;;;;29.43;5.63;;;7.00;99.90;;;;;;5036734;28;20518;-77
2022/01/17 09:22:04;;;;;;;34.37;6.37;;;7.00;99.90;;;;;;5037608;28;20053;-77
2022/01/17 09:24:29;;;;;;;29.93;4.93;;;7.00;99.90;;;;;;5052759;28;20056;-77
2022/01/17 09:26:55;;;;;;;28.13;5.33;;;7.10;99.90;;;;;;5051187;28;20060;-77
2022/01/17 09:29:21;;;;;;;24.63;5.23;;;7.10;99.90;;;;;;5018367;28;20060;-76
2022/01/17 09:31:47;;;;;;;28.73;5.00;;;7.20;99.90;;;;;;5020690;28;20047;-77
2022/01/17 09:34:12;;;;;;;30.17;5.50;;;7.20;99.90;;;;;;5021202;28;20393;-77
2022/01/17 09:36:39;;;;;;;20.70;4.73;;;7.30;99.90;;;;;;5017654;28;20064;-76
2022/01/17 09:39:07;;;;;;;26.67;4.60;;;7.30;99.90;;;;;;5052947;28;20072;-77
2022/01/17 09:41:33;;;;;;;31.17;5.73;;;7.40;99.90;;;;;;5041032;28;20099;-76
2022/01/17 09:44:01;;;;;;;25.50;5.23;;;7.50;99.90;;;;;;5041785;28;20535;-76
2022/01/17 09:46:33;;;;;;;33.73;5.30;;;7.60;99.90;;;;;;5039463;28;20041;-77
2022/01/17 09:49:12;;;;;;;29.53;4.83;;;7.70;99.90;;;;;;5057917;28;20048;-77
2022/01/17 09:52:03;;;;;;;30.13;5.37;;;7.80;99.90;;;;;;5041961;28;20079;-77
2022/01/17 09:54:31;;;;;;;37.73;5.73;;;8.00;99.90;;;;;;5051425;28;20133;-77
2022/01/17 09:56:59;;;;;;;26.20;5.03;;;8.00;99.90;;;;;;5041418;28;20033;-77
2022/01/17 09:59:25;;;;;;;30.33;5.50;;;8.10;99.90;;;;;;5040741;28;20131;-77
2022/01/17 10:01:51;;;;;;;19.77;4.77;;;8.20;99.90;;;;;;5008318;28;20106;-76
2022/01/17 10:04:17;;;;;;;30.17;5.33;;;8.20;99.90;;;;;;5041179;28;20071;-76
2022/01/17 10:06:50;;;;;;;29.47;5.67;;;8.30;99.90;;;;;;5039997;28;20040;-77
2022/01/17 10:09:21;;;;;;;31.80;4.83;;;8.40;99.90;;;;;;5025940;28;20052;-77
2022/01/17 10:12:05;;;;;;;29.77;6.30;;;8.40;99.90;;;;;;5040440;28;20067;-76
2022/01/17 10:14:43;;;;;;;27.87;4.97;;;8.50;99.90;;;;;;5042555;28;20041;-77
2022/01/17 10:17:14;;;;;;;27.20;5.57;;;8.50;99.90;;;;;;5056482;28;20053;-80
2022/01/17 10:19:41;;;;;;;26.42;5.53;;;8.60;99.90;;;;;;5059913;28;20088;-76
2022/01/17 10:22:14;;;;;;;27.07;5.27;;;8.60;99.90;;;;;;5060292;28;20033;-77
2022/01/17 10:24:57;;;;;;;30.33;5.63;;;8.70;99.90;;;;;;5047037;28;20056;-77
2022/01/17 10:35:27;;;;;;;25.80;5.97;;;8.90;99.90;;;;;;5034052;28;20886;-76
2022/01/17 10:38:01;;;;;;;22.70;4.63;;;9.00;99.90;;;;;;5059668;28;20060;-77
2022/01/17 10:40:59;;;;;;;27.90;5.33;;;9.00;99.90;;;;;;5061416;28;20057;-77
2022/01/17 10:43:38;;;;;;;34.77;5.10;;;9.10;99.90;;;;;;5061652;28;20049;-75
2022/01/17 10:46:22;;;;;;;32.43;5.53;;;9.10;99.90;;;;;;5045625;28;20047;-76
2022/01/17 10:48:47;;;;;;;27.60;5.33;;;9.10;99.90;;;;;;5046730;28;20037;-76
2022/01/17 10:51:14;;;;;;;31.90;6.10;;;9.20;99.90;;;;;;5030919;28;20594;-76
2022/01/17 10:53:41;;;;;;;31.10;5.43;;;9.20;99.90;;;;;;5074658;28;20057;-77
2022/01/17 10:56:13;;;;;;;29.80;4.97;;;9.30;99.90;;;;;;5062013;28;20044;-77
2022/01/17 10:58:40;;;;;;;29.65;5.78;;;9.40;99.90;;;;;;5013192;28;20115;-76
2022/01/17 11:01:11;;;;;;;26.50;5.50;;;9.40;99.90;;;;;;5084359;28;20041;-76
2022/01/17 11:03:39;;;;;;;27.10;5.38;;;9.30;99.90;;;;;;5056041;28;20051;-76
2022/01/17 11:06:20;;;;;;;28.73;5.50;;;9.40;99.90;;;;;;5056203;28;20045;-76
2022/01/17 11:08:46;;;;;;;28.58;5.60;;;9.30;99.90;;;;;;5026602;28;20045;-77
2022/01/17 11:11:12;;;;;;;35.60;6.80;;;9.30;99.90;;;;;;5075367;28;20076;-76
2022/01/17 11:13:43;;;;;;;27.90;5.50;;;9.20;99.90;;;;;;5011280;28;20045;-76
2022/01/17 11:16:11;;;;;;;36.30;6.67;;;9.20;99.90;;;;;;5035440;28;20041;-76
2022/01/17 11:18:40;;;;;;;34.17;6.60;;;9.20;99.90;;;;;;5027458;28;20041;-76
2022/01/17 11:21:13;;;;;;;30.90;5.97;;;9.20;99.90;;;;;;5030978;28;20051;-80
2022/01/17 11:23:43;;;;;;;31.53;6.57;;;9.20;99.90;;;;;;5035717;28;20045;-75
2022/01/17 11:26:10;;;;;;;32.50;6.30;;;9.30;99.90;;;;;;5012958;28;20060;-78
2022/01/17 11:28:37;;;;;;;29.73;6.63;;;9.30;99.90;;;;;;5056879;28;20053;-77
2022/01/17 11:31:07;;;;;;;33.30;6.97;;;9.40;99.90;;;;;;5027124;28;20122;-78
2022/01/17 11:33:34;;;;;;;35.53;6.83;;;9.50;99.90;;;;;;5077189;28;20049;-78
2022/01/17 11:35:59;;;;;;;33.40;6.23;;;9.50;99.90;;;;;;5058950;28;20059;-78
2022/01/17 11:38:34;;;;;;;37.50;6.10;;;9.50;99.90;;;;;;5012215;28;20057;-78
2022/01/17 11:41:01;;;;;;;38.00;7.63;;;9.50;99.90;;;;;;5059764;28;20579;-77
2022/01/17 11:43:37;;;;;;;27.00;6.07;;;9.40;99.90;;;;;;5059166;28;20072;-78
2022/01/17 11:46:03;;;;;;;36.23;6.17;;;9.40;99.90;;;;;;5028668;28;20057;-77
2022/01/17 11:48:32;;;;;;;35.00;6.17;;;9.40;99.90;;;;;;5058694;28;20298;-77
2022/01/17 11:51:11;;;;;;;40.47;6.60;;;9.40;99.90;;;;;;5075130;28;20049;-76
2022/01/17 11:53:39;;;;;;;36.63;6.93;;;9.40;99.90;;;;;;5057493;28;20049;-78
2022/01/17 11:56:06;;;;;;;33.13;5.83;;;9.40;99.90;;;;;;5071481;28;20076;-78
2022/01/17 11:58:38;;;;;;;34.30;6.37;;;9.40;99.90;;;;;;5060937;28;20041;-77
2022/01/17 12:01:04;;;;;;;37.53;6.40;;;9.40;99.90;;;;;;5052007;28;20040;-78
2022/01/17 12:03:38;;;;;;;28.57;6.27;;;9.40;99.90;;;;;;5051824;28;20048;-77
2022/01/17 12:06:37;;;;;;;31.23;6.53;;;9.50;99.90;;;;;;5061067;28;20040;-77
2022/01/17 12:09:23;;;;;;;30.40;6.23;;;9.40;99.90;;;;;;5062209;28;20056;-78
2022/01/17 12:12:03;;;;;;;31.20;5.90;;;9.40;99.90;;;;;;5044324;28;20041;-77
2022/01/17 12:14:40;;;;;;;36.83;6.47;;;9.30;99.90;;;;;;5057608;28;20079;-79
2022/01/17 12:17:23;;;;;;;39.17;6.97;;;9.40;99.90;;;;;;5027510;28;20052;-78
2022/01/17 12:20:04;;;;;;;30.93;5.27;;;9.40;99.90;;;;;;5057518;28;20048;-78
2022/01/17 12:22:50;;;;;;;30.08;7.13;;;9.40;99.90;;;;;;5027879;28;20045;-78
2022/01/17 12:25:26;;;;;;;36.63;6.63;;;9.40;99.90;;;;;;5051770;28;20178;-79
2022/01/17 12:28:18;;;;;;;28.67;6.10;;;9.50;99.90;;;;;;5073508;28;20056;-77
2022/01/17 12:30:47;;;;;;;29.88;6.30;;;9.50;99.90;;;;;;5045079;28;20049;-78
2022/01/17 12:33:29;;;;;;;23.90;6.33;;;9.50;99.90;;;;;;5077603;28;20060;-78
2022/01/17 12:36:01;;;;;;;26.55;4.65;;;9.60;99.90;;;;;;5046112;28;20113;-78
2022/01/17 12:38:29;;;;;;;;;;;9.60;99.90;;;;;;5029132;28;20048;-78
2022/01/17 12:40:56;;;;;;;36.50;6.10;;;9.60;99.90;;;;;;5028727;28;19928;-77
2022/01/17 12:43:30;;;;;;;23.10;5.30;;;9.60;99.90;;;;;;5079245;28;20084;-78
2022/01/17 12:46:03;;;;;;;31.33;6.10;;;9.60;99.90;;;;;;5065638;28;20049;-78
2022/01/17 12:48:30;;;;;;;31.47;6.97;;;9.60;99.90;;;;;;5066065;28;20045;-76
2022/01/17 12:50:59;;;;;;;27.40;5.70;;;9.50;99.90;;;;;;5038834;28;20045;-77
2022/01/17 12:53:27;;;;;;;25.03;6.00;;;9.50;99.90;;;;;;5021914;28;20099;-77
2022/01/17 12:55:56;;;;;;;33.13;5.80;;;9.50;99.90;;;;;;5054818;28;20053;-77
2022/01/17 12:58:23;;;;;;;29.57;5.47;;;9.50;99.90;;;;;;5086403;28;20041;-77
2022/01/17 13:01:00;;;;;;;29.13;5.63;;;9.40;99.90;;;;;;5051775;28;20119;-76
2022/01/17 13:03:29;;;;;;;25.63;5.80;;;9.40;99.90;;;;;;5037986;28;20052;-76
2022/01/17 13:05:55;;;;;;;27.50;5.33;;;9.40;99.90;;;;;;5052524;28;20056;-77
2022/01/17 13:08:22;;;;;;;25.40;5.97;;;9.40;99.90;;;;;;5048381;28;20123;-77
2022/01/17 13:10:49;;;;;;;27.33;5.83;;;9.40;99.90;;;;;;5056552;28;20041;-77
2022/01/17 13:13:16;;;;;;;29.37;6.03;;;9.30;99.90;;;;;;5055105;28;20049;-77
2022/01/17 13:15:57;;;;;;;25.67;5.47;;;9.30;99.90;;;;;;5037025;28;20049;-77